createdAt,value
2022-07-30T00:01:44.995Z,20.20
2022-07-30T00:04:13.045Z,20.10
2022-07-30T00:06:41.304Z,20.10
2022-07-30T00:09:09.501Z,20.10
2022-07-30T00:11:38.975Z,20.10
2022-07-30T00:14:07.094Z,20.10
2022-07-30T00:16:35.266Z,20.00
2022-07-30T00:19:03.407Z,19.90
2022-07-30T00:21:38.609Z,20.00
2022-07-30T00:24:08.647Z,20.00
2022-07-30T00:26:38.693Z,20.00
2022-07-30T00:29:07.253Z,20.00
2022-07-30T00:31:35.302Z,20.00
2022-07-30T00:34:03.469Z,20.00
2022-07-30T00:36:31.613Z,20.00
2022-07-30T00:38:59.872Z,20.00
2022-07-30T00:41:28.001Z,20.00
2022-07-30T00:43:57.613Z,20.00
2022-07-30T00:46:25.715Z,20.00
2022-07-30T00:48:53.853Z,19.90
2022-07-30T00:51:22.016Z,19.90
2022-07-30T00:53:50.113Z,19.90
2022-07-30T00:56:18.161Z,19.80
2022-07-30T00:58:46.220Z,19.80
2022-07-30T01:01:18.673Z,19.80
2022-07-30T01:03:46.776Z,19.80
2022-07-30T01:06:14.843Z,19.80
2022-07-30T01:08:43.415Z,19.80
2022-07-30T01:11:12.068Z,19.80
2022-07-30T01:13:43.896Z,19.80
2022-07-30T01:16:12.153Z,19.80
2022-07-30T01:19:01.377Z,19.80
2022-07-30T01:21:34.950Z,19.70
2022-07-30T01:24:28.778Z,19.70
2022-07-30T01:26:59.324Z,19.70
2022-07-30T01:29:30.209Z,19.70
2022-07-30T01:32:00.358Z,19.70
2022-07-30T01:34:33.717Z,19.70
2022-07-30T01:37:04.850Z,19.70
2022-07-30T01:39:34.016Z,19.70
2022-07-30T01:42:07.357Z,19.70
2022-07-30T01:44:37.026Z,19.60
2022-07-30T01:47:07.368Z,19.60
2022-07-30T01:49:41.694Z,19.50
2022-07-30T01:52:11.121Z,19.50
2022-07-30T01:54:40.520Z,19.50
2022-07-30T01:57:10.931Z,19.40
2022-07-30T01:59:41.414Z,19.50
2022-07-30T02:02:09.633Z,19.40
2022-07-30T02:04:37.790Z,19.50
2022-07-30T02:07:15.840Z,19.50
2022-07-30T02:09:52.585Z,19.40
2022-07-30T02:12:29.840Z,19.40
2022-07-30T02:15:15.737Z,19.40
2022-07-30T02:17:50.308Z,19.40
2022-07-30T02:20:28.300Z,19.40
2022-07-30T02:23:02.357Z,19.50
2022-07-30T02:25:33.485Z,19.50
2022-07-30T02:28:08.755Z,19.40
2022-07-30T02:30:41.735Z,19.40
2022-07-30T02:33:12.842Z,19.40
2022-07-30T02:35:42.234Z,19.30
2022-07-30T02:38:12.932Z,19.30
2022-07-30T02:40:42.950Z,19.30
2022-07-30T02:43:15.408Z,19.30
2022-07-30T02:45:44.998Z,19.30
2022-07-30T02:48:33.011Z,19.30
2022-07-30T02:51:05.067Z,19.30
2022-07-30T02:53:35.215Z,19.30
2022-07-30T02:56:04.227Z,19.40
2022-07-30T02:58:37.945Z,19.30
2022-07-30T03:01:07.653Z,19.40
2022-07-30T03:03:37.579Z,19.30
2022-07-30T03:06:07.301Z,19.30
2022-07-30T03:08:36.251Z,19.30
2022-07-30T03:11:05.749Z,19.20
2022-07-30T03:13:35.540Z,19.30
2022-07-30T03:16:08.280Z,19.20
2022-07-30T03:18:39.510Z,19.20
2022-07-30T03:21:10.830Z,19.20
2022-07-30T03:23:42.812Z,19.30
2022-07-30T03:26:15.007Z,19.30
2022-07-30T03:28:45.462Z,19.30
2022-07-30T03:31:15.634Z,19.30
2022-07-30T03:33:47.988Z,19.40
2022-07-30T03:36:17.002Z,19.40
2022-07-30T03:38:46.294Z,19.40
2022-07-30T03:41:15.421Z,19.40
2022-07-30T03:43:47.727Z,19.30
2022-07-30T03:46:17.153Z,19.40
2022-07-30T03:48:49.129Z,19.40
2022-07-30T03:51:18.192Z,19.30
2022-07-30T03:53:47.647Z,19.30
2022-07-30T03:56:37.622Z,19.30
2022-07-30T03:59:11.172Z,19.30
2022-07-30T04:01:41.509Z,19.30
2022-07-30T04:04:33.437Z,19.30
2022-07-30T04:07:01.910Z,19.30
2022-07-30T04:09:30.562Z,19.30
2022-07-30T04:12:07.922Z,19.20
2022-07-30T04:14:42.746Z,19.20
2022-07-30T04:17:16.924Z,19.20
2022-07-30T04:19:49.122Z,19.20
2022-07-30T04:22:21.422Z,19.20
2022-07-30T04:24:50.323Z,19.30
2022-07-30T04:27:19.002Z,19.30
2022-07-30T04:29:48.845Z,19.40
2022-07-30T04:32:20.439Z,19.40
2022-07-30T04:35:07.501Z,19.40
2022-07-30T04:38:02.704Z,19.40
2022-07-30T04:40:32.409Z,19.40
2022-07-30T04:43:03.034Z,19.50
2022-07-30T04:45:37.251Z,19.40
2022-07-30T04:48:07.584Z,19.50
2022-07-30T04:50:54.640Z,19.50
2022-07-30T04:53:23.912Z,19.50
2022-07-30T04:55:57.040Z,19.50
2022-07-30T04:58:29.534Z,19.60
2022-07-30T05:01:01.979Z,19.60
2022-07-30T05:03:33.985Z,19.60
2022-07-30T05:06:02.379Z,19.70
2022-07-30T05:08:34.222Z,19.70
2022-07-30T05:11:06.470Z,19.80
2022-07-30T05:13:38.111Z,19.80
2022-07-30T05:16:10.429Z,19.80
2022-07-30T05:18:39.236Z,19.80
2022-07-30T05:21:07.622Z,19.80
2022-07-30T05:23:38.287Z,19.90
2022-07-30T05:26:21.080Z,20.00
2022-07-30T05:28:55.011Z,19.90
2022-07-30T05:31:32.865Z,19.90
2022-07-30T05:34:04.550Z,19.90
2022-07-30T05:36:45.387Z,19.90
2022-07-30T05:39:18.203Z,19.90
2022-07-30T05:42:04.656Z,19.80
2022-07-30T05:44:45.670Z,19.90
2022-07-30T05:47:15.491Z,19.90
2022-07-30T05:49:43.598Z,19.90
2022-07-30T05:52:15.609Z,19.90
2022-07-30T05:54:44.500Z,20.00
2022-07-30T05:57:31.464Z,20.00
2022-07-30T05:59:59.536Z,20.00
2022-07-30T06:02:47.400Z,20.00
2022-07-30T06:05:28.267Z,20.00
2022-07-30T06:08:00.389Z,20.00
2022-07-30T06:10:30.173Z,20.00
2022-07-30T06:12:59.450Z,20.00
2022-07-30T06:15:27.692Z,20.00
2022-07-30T06:18:02.018Z,20.00
2022-07-30T06:20:52.158Z,20.00
2022-07-30T06:23:31.917Z,20.00
2022-07-30T06:26:18.294Z,20.00
2022-07-30T06:28:46.420Z,20.00
2022-07-30T06:31:20.673Z,20.00
2022-07-30T06:33:50.246Z,20.00
2022-07-30T06:36:18.680Z,20.00
2022-07-30T06:38:56.799Z,20.10
2022-07-30T06:41:37.267Z,20.10
2022-07-30T06:44:05.726Z,20.10
2022-07-30T06:46:52.575Z,20.10
2022-07-30T06:49:25.939Z,20.10
2022-07-30T06:51:54.170Z,20.10
2022-07-30T06:54:22.363Z,20.20
2022-07-30T06:56:59.894Z,20.20
2022-07-30T06:59:28.556Z,20.20
2022-07-30T07:02:14.889Z,20.20
2022-07-30T07:05:05.058Z,20.30
2022-07-30T07:07:41.795Z,20.30
2022-07-30T07:10:15.186Z,20.30
2022-07-30T07:12:46.385Z,20.30
2022-07-30T07:15:17.798Z,20.30
2022-07-30T07:17:46.008Z,20.40
2022-07-30T07:20:47.675Z,20.40
2022-07-30T07:23:15.956Z,20.50
2022-07-30T07:25:49.275Z,20.60
2022-07-30T07:28:17.662Z,20.60
2022-07-30T07:30:46.081Z,20.70
2022-07-30T07:33:16.396Z,20.70
2022-07-30T07:35:49.842Z,20.80
2022-07-30T07:38:34.422Z,20.80
2022-07-30T07:41:02.848Z,20.90
2022-07-30T07:43:31.423Z,21.00
2022-07-30T07:46:03.329Z,21.00
2022-07-30T07:48:34.084Z,21.10
2022-07-30T07:51:47.685Z,21.30
2022-07-30T07:54:21.709Z,21.30
2022-07-30T07:56:52.782Z,21.40
2022-07-30T07:59:31.606Z,21.50
2022-07-30T08:02:11.328Z,21.60
2022-07-30T08:04:50.632Z,21.80
2022-07-30T08:07:35.586Z,21.80
2022-07-30T08:10:22.200Z,22.00
2022-07-30T08:13:48.101Z,22.50
2022-07-30T08:16:16.092Z,22.90
2022-07-30T08:19:03.042Z,23.10
2022-07-30T08:21:35.957Z,23.10
2022-07-30T08:24:06.768Z,23.20
2022-07-30T08:26:34.927Z,23.30
2022-07-30T08:29:03.349Z,23.40
2022-07-30T08:31:31.439Z,23.60
2022-07-30T08:33:59.570Z,23.70
2022-07-30T08:36:28.231Z,24.00
2022-07-30T08:38:56.405Z,24.10
2022-07-30T08:41:26.414Z,24.50
2022-07-30T08:43:55.729Z,24.80
2022-07-30T08:46:26.314Z,25.00
2022-07-30T08:49:07.787Z,25.10
2022-07-30T08:51:38.021Z,25.10
2022-07-30T08:54:07.185Z,25.10
2022-07-30T08:56:39.727Z,24.90
2022-07-30T08:59:08.935Z,24.90
2022-07-30T09:01:37.755Z,24.80
2022-07-30T09:04:08.386Z,24.90
2022-07-30T09:06:38.026Z,24.80
2022-07-30T09:09:07.099Z,24.80
2022-07-30T09:11:36.518Z,24.90
2022-07-30T09:14:13.354Z,25.00
2022-07-30T09:16:42.273Z,25.00
2022-07-30T09:19:15.713Z,25.10
2022-07-30T09:21:44.159Z,25.40
2022-07-30T09:24:25.858Z,25.60
2022-07-30T09:27:22.808Z,26.00
2022-07-30T09:29:59.288Z,26.30
2022-07-30T09:32:50.728Z,26.60
2022-07-30T09:35:37.749Z,26.90
2022-07-30T09:38:13.305Z,27.30
2022-07-30T09:40:57.421Z,27.80
2022-07-30T09:43:46.660Z,28.10
2022-07-30T09:46:23.912Z,28.20
2022-07-30T09:48:52.074Z,28.10
2022-07-30T09:51:49.212Z,27.90
2022-07-30T09:54:10.839Z,27.80
2022-07-30T09:56:40.134Z,27.60
2022-07-30T09:59:28.596Z,27.40
2022-07-30T10:02:05.424Z,27.20
2022-07-30T10:05:15.636Z,27.00
2022-07-30T10:07:52.244Z,26.80
2022-07-30T10:10:25.871Z,26.70
2022-07-30T10:12:59.259Z,26.60
2022-07-30T10:15:32.587Z,26.30
2022-07-30T10:18:06.358Z,26.20
2022-07-30T10:20:53.200Z,25.90
2022-07-30T10:23:51.910Z,25.80
2022-07-30T10:26:59.448Z,25.60
2022-07-30T10:29:46.577Z,25.50
2022-07-30T10:32:15.093Z,25.40
2022-07-30T10:34:44.663Z,25.30
2022-07-30T10:37:15.786Z,25.10
2022-07-30T10:39:51.742Z,25.10
2022-07-30T10:42:37.956Z,25.00
2022-07-30T10:45:18.912Z,24.80
2022-07-30T10:47:49.166Z,24.80
2022-07-30T10:50:22.686Z,24.70
2022-07-30T10:52:55.811Z,24.50
2022-07-30T10:55:36.626Z,24.40
2022-07-30T10:58:08.781Z,24.40
2022-07-30T11:00:58.582Z,24.30
2022-07-30T11:03:40.222Z,24.30
2022-07-30T11:06:30.402Z,24.30
2022-07-30T11:08:58.934Z,24.10
2022-07-30T11:12:05.442Z,24.10
2022-07-30T11:14:56.409Z,24.10
2022-07-30T11:17:24.509Z,24.10
2022-07-30T11:20:11.713Z,24.00
2022-07-30T11:22:44.573Z,23.90
2022-07-30T11:25:50.952Z,23.80
2022-07-30T11:28:36.737Z,23.70
2022-07-30T11:31:06.132Z,23.70
2022-07-30T11:33:39.222Z,23.60
2022-07-30T11:36:12.729Z,23.60
2022-07-30T11:39:06.963Z,23.50
2022-07-30T11:41:35.477Z,23.40
2022-07-30T11:44:29.211Z,23.40
2022-07-30T11:46:57.489Z,23.20
2022-07-30T11:49:25.977Z,23.10
2022-07-30T11:51:54.285Z,23.00
2022-07-30T11:54:23.716Z,22.80
2022-07-30T11:56:54.331Z,22.70
2022-07-30T11:59:22.813Z,22.50
2022-07-30T12:01:51.838Z,22.50
2022-07-30T12:04:24.630Z,22.40
2022-07-30T12:06:53.236Z,22.30
2022-07-30T12:09:28.994Z,22.20
2022-07-30T12:11:57.892Z,22.10
2022-07-30T12:14:26.094Z,22.00
2022-07-30T12:16:55.573Z,21.90
2022-07-30T12:19:23.722Z,21.90
2022-07-30T12:21:53.646Z,21.80
2022-07-30T12:24:27.463Z,21.80
2022-07-30T12:27:06.362Z,21.80
2022-07-30T12:29:35.715Z,21.80
2022-07-30T12:32:04.449Z,21.80
2022-07-30T12:34:33.783Z,21.80
2022-07-30T12:37:10.153Z,21.70
2022-07-30T12:39:40.575Z,21.70
2022-07-30T12:42:18.520Z,21.70
2022-07-30T12:44:49.214Z,21.70
2022-07-30T12:47:22.059Z,21.70
2022-07-30T12:49:53.362Z,21.70
2022-07-30T12:52:27.539Z,21.70
2022-07-30T12:55:04.422Z,21.70
2022-07-30T12:57:55.197Z,21.60
2022-07-30T13:00:23.820Z,21.60
2022-07-30T13:02:52.103Z,21.60
2022-07-30T13:05:20.378Z,21.60
2022-07-30T13:07:56.673Z,21.60
2022-07-30T13:10:31.163Z,21.60
2022-07-30T13:12:59.862Z,21.60
2022-07-30T13:15:28.004Z,21.50
2022-07-30T13:17:56.081Z,21.50
2022-07-30T13:20:24.682Z,21.40
2022-07-30T13:22:52.759Z,21.40
2022-07-30T13:25:20.922Z,21.40
2022-07-30T13:27:50.401Z,21.40
2022-07-30T13:30:18.594Z,21.40
2022-07-30T13:32:46.711Z,21.40
2022-07-30T13:35:14.789Z,21.40
2022-07-30T13:37:42.845Z,21.30
2022-07-30T13:40:11.869Z,21.30
2022-07-30T13:42:39.993Z,21.30
2022-07-30T13:45:10.665Z,21.30
2022-07-30T13:47:38.814Z,21.20
2022-07-30T13:50:07.775Z,21.20
2022-07-30T13:52:36.042Z,21.10
2022-07-30T13:55:04.296Z,21.10
2022-07-30T13:57:32.431Z,21.00
2022-07-30T14:00:00.749Z,20.90
2022-07-30T14:02:34.383Z,20.90
2022-07-30T14:05:07.031Z,21.00
2022-07-30T14:07:35.413Z,21.00
2022-07-30T14:10:04.508Z,20.90
2022-07-30T14:12:32.616Z,20.90
2022-07-30T14:15:00.790Z,20.90
2022-07-30T14:17:28.971Z,20.90
2022-07-30T14:19:58.378Z,20.80
2022-07-30T14:22:26.530Z,20.80
2022-07-30T14:24:54.660Z,20.80
2022-07-30T14:27:22.941Z,20.80
2022-07-30T14:29:51.060Z,20.80
2022-07-30T14:32:19.290Z,20.70
2022-07-30T14:34:49.465Z,20.80
2022-07-30T14:37:19.342Z,20.80
2022-07-30T14:39:47.694Z,20.80
2022-07-30T14:42:16.004Z,20.70
2022-07-30T14:44:44.140Z,20.60
2022-07-30T14:47:13.779Z,20.60
2022-07-30T14:49:41.904Z,20.50
2022-07-30T14:52:11.031Z,20.60
2022-07-30T14:54:40.525Z,20.50
2022-07-30T14:57:10.168Z,20.50
2022-07-30T14:59:38.289Z,20.50
2022-07-30T15:02:10.646Z,20.50
2022-07-30T15:04:39.091Z,20.50
2022-07-30T15:07:07.241Z,20.50
2022-07-30T15:09:35.377Z,20.60
2022-07-30T15:12:08.576Z,20.50
2022-07-30T15:14:38.485Z,20.50
2022-07-30T15:17:08.255Z,20.50
2022-07-30T15:19:36.604Z,20.60
2022-07-30T15:22:05.511Z,20.60
2022-07-30T15:24:34.291Z,20.60
2022-07-30T15:27:02.499Z,20.60
2022-07-30T15:29:32.197Z,20.60
2022-07-30T15:32:01.680Z,20.60
2022-07-30T15:34:34.512Z,20.60
2022-07-30T15:37:03.606Z,20.60
2022-07-30T15:39:33.926Z,20.60
2022-07-30T15:42:06.376Z,20.70
2022-07-30T15:44:39.820Z,20.70
2022-07-30T15:47:15.804Z,20.70
2022-07-30T15:49:44.679Z,20.80
2022-07-30T15:52:13.069Z,20.80
2022-07-30T15:54:41.239Z,20.80
2022-07-30T15:57:09.346Z,20.80
2022-07-30T15:59:38.758Z,20.80
2022-07-30T16:02:07.131Z,20.80
2022-07-30T16:04:35.501Z,20.80
2022-07-30T16:07:04.463Z,20.80
2022-07-30T16:09:32.618Z,20.80
2022-07-30T16:12:01.230Z,20.90
2022-07-30T16:14:29.670Z,20.90
2022-07-30T16:16:59.075Z,21.00
2022-07-30T16:19:28.512Z,20.90
2022-07-30T16:21:59.368Z,21.00
2022-07-30T16:24:27.543Z,21.00
2022-07-30T16:26:55.681Z,21.00
2022-07-30T16:29:23.754Z,21.00
2022-07-30T16:31:51.860Z,21.10
2022-07-30T16:34:26.432Z,21.10
2022-07-30T16:36:55.256Z,21.10
2022-07-30T16:39:23.356Z,21.00
2022-07-30T16:41:51.451Z,21.00
2022-07-30T16:44:19.605Z,21.00
2022-07-30T16:46:48.412Z,21.00
2022-07-30T16:49:23.762Z,21.00
2022-07-30T16:51:51.943Z,20.90
2022-07-30T16:54:20.064Z,20.90
2022-07-30T16:56:56.495Z,20.90
2022-07-30T16:59:25.075Z,20.80
2022-07-30T17:01:53.242Z,20.90
2022-07-30T17:04:22.678Z,20.90
2022-07-30T17:06:51.692Z,20.90
2022-07-30T17:09:22.067Z,20.90
2022-07-30T17:11:52.271Z,20.90
2022-07-30T17:14:22.276Z,20.90
2022-07-30T17:16:51.223Z,20.90
2022-07-30T17:19:23.629Z,20.90
2022-07-30T17:21:53.700Z,20.90
2022-07-30T17:24:21.816Z,20.90
2022-07-30T17:26:49.919Z,20.80
2022-07-30T17:29:20.633Z,20.80
2022-07-30T17:31:48.917Z,20.70
2022-07-30T17:34:20.300Z,20.60
2022-07-30T17:36:52.346Z,20.60
2022-07-30T17:40:26.985Z,20.50
2022-07-30T17:42:10.476Z,20.50
2022-07-30T17:44:39.624Z,20.50
2022-07-30T17:47:13.845Z,20.40
2022-07-30T17:49:43.229Z,20.40
2022-07-30T17:52:12.857Z,20.40
2022-07-30T17:54:41.037Z,20.30
2022-07-30T17:57:16.387Z,20.20
2022-07-30T17:59:44.546Z,20.30
2022-07-30T18:02:15.623Z,20.20
2022-07-30T18:04:46.401Z,20.20
2022-07-30T18:07:15.805Z,20.20
2022-07-30T18:09:43.983Z,20.20
2022-07-30T18:12:12.060Z,20.10
2022-07-30T18:14:40.165Z,20.10
2022-07-30T18:17:11.250Z,20.10
2022-07-30T18:19:42.428Z,20.10
2022-07-30T18:22:14.881Z,20.00
2022-07-30T18:24:44.678Z,20.00
2022-07-30T18:27:13.548Z,19.90
2022-07-30T18:29:41.993Z,19.90
2022-07-30T18:32:10.496Z,19.90
2022-07-30T18:34:38.664Z,19.90
2022-07-30T18:37:06.728Z,19.80
2022-07-30T18:39:34.848Z,19.80
2022-07-30T18:42:04.926Z,19.80
2022-07-30T18:44:33.414Z,19.80
2022-07-30T18:47:01.614Z,19.70
2022-07-30T18:49:37.925Z,19.70
2022-07-30T18:52:09.160Z,19.70
2022-07-30T18:54:40.210Z,19.60
2022-07-30T18:57:18.622Z,19.50
2022-07-30T18:59:48.867Z,19.50
2022-07-30T19:02:18.690Z,19.40
2022-07-30T19:04:46.835Z,19.40
2022-07-30T19:07:14.993Z,19.40
2022-07-30T19:09:46.105Z,19.40
2022-07-30T19:12:18.506Z,19.30
2022-07-30T19:14:46.630Z,19.30
2022-07-30T19:17:15.367Z,19.20
2022-07-30T19:19:43.650Z,19.20
2022-07-30T19:22:11.746Z,19.30
2022-07-30T19:24:39.856Z,19.20
2022-07-30T19:27:13.691Z,19.30
2022-07-30T19:29:44.923Z,19.20
2022-07-30T19:32:13.372Z,19.30
2022-07-30T19:34:44.348Z,19.20
2022-07-30T19:37:12.430Z,19.20
2022-07-30T19:39:58.621Z,19.20
2022-07-30T19:42:28.650Z,19.20
2022-07-30T19:45:01.214Z,19.20
2022-07-30T19:47:39.483Z,19.20
2022-07-30T19:50:10.057Z,19.20
2022-07-30T19:52:38.558Z,19.10
2022-07-30T19:55:17.227Z,19.10
2022-07-30T19:57:55.563Z,19.00
2022-07-30T20:00:25.699Z,19.00
2022-07-30T20:02:54.137Z,19.00
2022-07-30T20:05:26.213Z,19.00
2022-07-30T20:07:58.797Z,18.90
2022-07-30T20:10:28.053Z,18.90
2022-07-30T20:12:57.790Z,18.90
2022-07-30T20:15:29.491Z,18.90
2022-07-30T20:18:00.553Z,18.80
2022-07-30T20:20:31.283Z,18.80
2022-07-30T20:22:59.702Z,18.70
2022-07-30T20:25:28.896Z,18.70
2022-07-30T20:28:06.089Z,18.60
2022-07-30T20:30:35.678Z,18.60
2022-07-30T20:33:04.002Z,18.60
2022-07-30T20:35:33.042Z,18.60
2022-07-30T20:38:10.188Z,18.50
2022-07-30T20:40:39.129Z,18.50
2022-07-30T20:43:07.909Z,18.50
2022-07-30T20:45:41.270Z,18.50
2022-07-30T20:48:17.101Z,18.50
2022-07-30T20:50:53.513Z,18.50
2022-07-30T20:53:23.463Z,18.50
2022-07-30T20:55:51.578Z,18.40
2022-07-30T20:58:19.816Z,18.50
2022-07-30T21:00:50.957Z,18.40
2022-07-30T21:03:21.212Z,18.40
2022-07-30T21:05:51.149Z,18.40
2022-07-30T21:08:21.355Z,18.40
2022-07-30T21:10:55.277Z,18.40
2022-07-30T21:13:26.051Z,18.30
2022-07-30T21:16:02.759Z,18.30
2022-07-30T21:18:32.834Z,18.30
2022-07-30T21:21:01.378Z,18.30
2022-07-30T21:23:33.545Z,18.30
2022-07-30T21:26:05.800Z,18.20
2022-07-30T21:28:36.071Z,18.20
2022-07-30T21:31:07.064Z,18.10
2022-07-30T21:33:36.174Z,18.00
2022-07-30T21:36:04.488Z,17.90
2022-07-30T21:38:34.491Z,17.90
2022-07-30T21:41:02.897Z,17.90
2022-07-30T21:43:39.250Z,17.80
2022-07-30T21:46:08.676Z,17.80
2022-07-30T21:48:39.585Z,17.70
2022-07-30T21:51:08.584Z,17.70
2022-07-30T21:53:46.215Z,17.70
2022-07-30T21:56:15.805Z,17.70
2022-07-30T21:58:45.183Z,17.70
2022-07-30T22:01:18.633Z,17.70
2022-07-30T22:04:04.364Z,17.60
2022-07-30T22:06:36.031Z,17.60
2022-07-30T22:09:10.072Z,17.60
2022-07-30T22:11:48.326Z,17.60
2022-07-30T22:14:16.373Z,17.60
2022-07-30T22:16:46.498Z,17.60
2022-07-30T22:19:15.347Z,17.50
2022-07-30T22:21:46.239Z,17.50
2022-07-30T22:24:29.431Z,17.50
2022-07-30T22:27:01.260Z,17.50
2022-07-30T22:29:33.707Z,17.50
2022-07-30T22:32:06.637Z,17.50
2022-07-30T22:34:36.098Z,17.50
2022-07-30T22:37:04.468Z,17.60
2022-07-30T22:39:50.725Z,17.60
2022-07-30T22:42:19.926Z,17.50
2022-07-30T22:44:48.203Z,17.50
2022-07-30T22:47:21.248Z,17.60
2022-07-30T22:50:08.019Z,17.50
2022-07-30T22:52:38.683Z,17.60
2022-07-30T22:55:09.333Z,17.60
2022-07-30T22:57:40.381Z,17.50
2022-07-30T23:00:12.571Z,17.50
2022-07-30T23:02:43.900Z,17.60
2022-07-30T23:05:12.986Z,17.60
2022-07-30T23:07:41.881Z,17.60
2022-07-30T23:10:18.208Z,17.60
2022-07-30T23:12:51.770Z,17.60
2022-07-30T23:15:20.865Z,17.60
2022-07-30T23:17:50.539Z,17.60
2022-07-30T23:20:21.452Z,17.60
2022-07-30T23:22:50.137Z,17.60
2022-07-30T23:25:18.638Z,17.70
2022-07-30T23:27:47.792Z,17.70
2022-07-30T23:30:17.011Z,17.60
2022-07-30T23:32:45.177Z,17.70
2022-07-30T23:35:14.770Z,17.70
2022-07-30T23:37:49.136Z,17.70
2022-07-30T23:40:18.609Z,17.60
2022-07-30T23:42:47.590Z,17.70
2022-07-30T23:45:15.677Z,17.60
2022-07-30T23:48:01.335Z,17.60
2022-07-30T23:50:33.335Z,17.70
2022-07-30T23:53:01.990Z,17.60
2022-07-30T23:55:30.689Z,17.70
2022-07-30T23:58:00.184Z,17.80
